sensor_id;sensor_type;location;lat;lon;timestamp;pressure;altitude;pressure_sealevel;temperature;humidity
21980;BME280;11154;48.558;9.234;2023-02-18T00:00:42;98489.00;;;14.67;86.79
21980;BME280;11154;48.558;9.234;2023-02-18T00:02:45;98485.13;;;14.70;86.76
21980;BME280;11154;48.558;9.234;2023-02-18T00:04:47;98491.50;;;14.69;86.86
21980;BME280;11154;48.558;9.234;2023-02-18T00:06:49;98497.88;;;14.68;86.95
21980;BME280;11154;48.558;9.234;2023-02-18T00:08:51;98507.56;;;14.69;86.87
21980;BME280;11154;48.558;9.234;2023-02-18T00:10:53;98503.06;;;14.69;86.72
21980;BME280;11154;48.558;9.234;2023-02-18T00:12:54;98495.84;;;14.70;86.63
21980;BME280;11154;48.558;9.234;2023-02-18T00:14:56;98496.84;;;14.69;86.56
21980;BME280;11154;48.558;9.234;2023-02-18T00:16:58;98490.66;;;14.68;86.58
21980;BME280;11154;48.558;9.234;2023-02-18T00:19:02;98485.31;;;14.68;86.79
21980;BME280;11154;48.558;9.234;2023-02-18T00:21:05;98482.47;;;14.70;86.52
21980;BME280;11154;48.558;9.234;2023-02-18T00:23:07;98473.59;;;14.69;86.43
21980;BME280;11154;48.558;9.234;2023-02-18T00:25:09;98479.13;;;14.68;86.42
21980;BME280;11154;48.558;9.234;2023-02-18T00:27:10;98473.78;;;14.68;86.08
21980;BME280;11154;48.558;9.234;2023-02-18T00:29:12;98479.13;;;14.68;86.29
21980;BME280;11154;48.558;9.234;2023-02-18T00:31:18;98472.09;;;14.67;86.11
21980;BME280;11154;48.558;9.234;2023-02-18T00:33:20;98466.75;;;14.67;86.13
21980;BME280;11154;48.558;9.234;2023-02-18T00:35:23;98461.38;;;14.67;85.79
21980;BME280;11154;48.558;9.234;2023-02-18T00:37:25;98467.56;;;14.67;85.63
21980;BME280;11154;48.558;9.234;2023-02-18T00:39:27;98463.06;;;14.68;85.49
21980;BME280;11154;48.558;9.234;2023-02-18T00:41:29;98465.75;;;14.68;85.08
21980;BME280;11154;48.558;9.234;2023-02-18T00:43:31;98473.78;;;14.68;84.93
21980;BME280;11154;48.558;9.234;2023-02-18T00:45:33;98467.56;;;14.67;85.28
21980;BME280;11154;48.558;9.234;2023-02-18T00:47:34;98468.44;;;14.68;85.01
21980;BME280;11154;48.558;9.234;2023-02-18T00:49:36;98474.44;;;14.70;84.97
21980;BME280;11154;48.558;9.234;2023-02-18T00:51:39;98468.25;;;14.69;85.03
21980;BME280;11154;48.558;9.234;2023-02-18T00:53:41;98473.59;;;14.69;85.04
21980;BME280;11154;48.558;9.234;2023-02-18T00:55:44;98457.72;;;14.68;85.01
21980;BME280;11154;48.558;9.234;2023-02-18T00:57:47;98466.75;;;14.67;85.13
21980;BME280;11154;48.558;9.234;2023-02-18T00:59:48;98467.41;;;14.69;85.13
21980;BME280;11154;48.558;9.234;2023-02-18T01:01:50;98460.22;;;14.69;85.18
21980;BME280;11154;48.558;9.234;2023-02-18T01:03:51;98448.81;;;14.67;85.35
21980;BME280;11154;48.558;9.234;2023-02-18T01:05:53;98453.19;;;14.68;84.99
21980;BME280;11154;48.558;9.234;2023-02-18T01:07:56;98454.69;;;14.71;84.69
21980;BME280;11154;48.558;9.234;2023-02-18T01:09:58;98450.34;;;14.70;84.75
21980;BME280;11154;48.558;9.234;2023-02-18T01:11:59;98452.00;;;14.71;84.75
21980;BME280;11154;48.558;9.234;2023-02-18T01:14:01;98444.97;;;14.70;84.76
21980;BME280;11154;48.558;9.234;2023-02-18T01:16:03;98443.28;;;14.69;84.69
21980;BME280;11154;48.558;9.234;2023-02-18T01:18:06;98445.66;;;14.72;84.42
21980;BME280;11154;48.558;9.234;2023-02-18T01:20:09;98456.03;;;14.75;84.27
21980;BME280;11154;48.558;9.234;2023-02-18T01:22:11;98458.72;;;14.75;84.26
21980;BME280;11154;48.558;9.234;2023-02-18T01:24:14;98455.88;;;14.76;84.14
21980;BME280;11154;48.558;9.234;2023-02-18T01:26:15;98448.84;;;14.75;83.93
21980;BME280;11154;48.558;9.234;2023-02-18T01:28:18;98446.16;;;14.75;83.86
21980;BME280;11154;48.558;9.234;2023-02-18T01:30:22;98441.00;;;14.74;84.03
21980;BME280;11154;48.558;9.234;2023-02-18T01:32:24;98431.09;;;14.74;83.61
21980;BME280;11154;48.558;9.234;2023-02-18T01:34:26;98435.94;;;14.71;83.55
21980;BME280;11154;48.558;9.234;2023-02-18T01:36:28;98430.59;;;14.71;83.30
21980;BME280;11154;48.558;9.234;2023-02-18T01:38:29;98427.09;;;14.70;83.10
21980;BME280;11154;48.558;9.234;2023-02-18T01:40:33;98434.13;;;14.71;82.78
21980;BME280;11154;48.558;9.234;2023-02-18T01:42:34;98428.91;;;14.70;82.82
21980;BME280;11154;48.558;9.234;2023-02-18T01:44:36;98419.88;;;14.71;82.81
21980;BME280;11154;48.558;9.234;2023-02-18T01:46:38;98421.06;;;14.68;82.80
21980;BME280;11154;48.558;9.234;2023-02-18T01:48:41;98408.50;;;14.69;82.49
21980;BME280;11154;48.558;9.234;2023-02-18T01:50:46;98412.19;;;14.68;82.32
21980;BME280;11154;48.558;9.234;2023-02-18T01:52:49;98429.09;;;14.68;82.49
21980;BME280;11154;48.558;9.234;2023-02-18T01:54:53;98427.22;;;14.69;82.39
21980;BME280;11154;48.558;9.234;2023-02-18T01:57:00;98436.13;;;14.69;82.62
21980;BME280;11154;48.558;9.234;2023-02-18T01:59:06;98427.22;;;14.69;82.65
21980;BME280;11154;48.558;9.234;2023-02-18T02:01:09;98390.56;;;13.96;85.44
21980;BME280;11154;48.558;9.234;2023-02-18T02:03:11;98386.97;;;13.47;89.76
21980;BME280;11154;48.558;9.234;2023-02-18T02:05:13;98381.84;;;13.28;91.47
21980;BME280;11154;48.558;9.234;2023-02-18T02:07:16;98386.75;;;13.15;92.93
21980;BME280;11154;48.558;9.234;2023-02-18T02:09:20;98384.72;;;13.09;93.44
21980;BME280;11154;48.558;9.234;2023-02-18T02:11:33;98382.66;;;13.03;94.13
21980;BME280;11154;48.558;9.234;2023-02-18T02:13:49;98378.25;;;12.94;94.93
21980;BME280;11154;48.558;9.234;2023-02-18T02:15:58;98378.00;;;12.88;95.42
21980;BME280;11154;48.558;9.234;2023-02-18T02:18:19;98378.59;;;12.82;95.79
21980;BME280;11154;48.558;9.234;2023-02-18T02:20:54;98365.75;;;12.77;95.91
21980;BME280;11154;48.558;9.234;2023-02-18T02:23:27;98361.69;;;12.73;96.33
21980;BME280;11154;48.558;9.234;2023-02-18T02:28:33;98359.97;;;12.64;96.68
21980;BME280;11154;48.558;9.234;2023-02-18T02:30:50;98360.25;;;12.61;97.07
21980;BME280;11154;48.558;9.234;2023-02-18T02:33:19;98345.22;;;12.60;96.77
21980;BME280;11154;48.558;9.234;2023-02-18T02:35:28;98352.25;;;12.61;97.00
21980;BME280;11154;48.558;9.234;2023-02-18T02:37:35;98350.88;;;12.57;97.17
21980;BME280;11154;48.558;9.234;2023-02-18T02:39:46;98351.00;;;12.56;97.34
21980;BME280;11154;48.558;9.234;2023-02-18T02:41:59;98358.34;;;12.54;97.54
21980;BME280;11154;48.558;9.234;2023-02-18T02:44:12;98359.19;;;12.54;97.55
21980;BME280;11154;48.558;9.234;2023-02-18T02:46:24;98360.16;;;12.53;97.77
21980;BME280;11154;48.558;9.234;2023-02-18T02:48:36;98359.72;;;12.58;97.48
21980;BME280;11154;48.558;9.234;2023-02-18T02:50:45;98355.25;;;12.58;97.40
21980;BME280;11154;48.558;9.234;2023-02-18T02:52:51;98353.22;;;12.60;97.25
21980;BME280;11154;48.558;9.234;2023-02-18T02:54:55;98347.06;;;12.60;97.45
21980;BME280;11154;48.558;9.234;2023-02-18T02:57:08;98336.25;;;12.61;97.10
21980;BME280;11154;48.558;9.234;2023-02-18T02:59:29;98341.56;;;12.61;97.61
21980;BME280;11154;48.558;9.234;2023-02-18T03:01:39;98347.72;;;12.62;97.42
21980;BME280;11154;48.558;9.234;2023-02-18T03:03:59;98343.41;;;12.61;97.65
21980;BME280;11154;48.558;9.234;2023-02-18T03:06:26;98342.03;;;12.57;97.58
21980;BME280;11154;48.558;9.234;2023-02-18T03:08:40;98335.94;;;12.47;96.21
21980;BME280;11154;48.558;9.234;2023-02-18T03:10:48;98330.53;;;12.39;95.93
21980;BME280;11154;48.558;9.234;2023-02-18T03:13:03;98330.09;;;12.43;96.76
21980;BME280;11154;48.558;9.234;2023-02-18T03:15:13;98336.69;;;12.57;97.32
21980;BME280;11154;48.558;9.234;2023-02-18T03:17:22;98332.41;;;12.64;97.36
21980;BME280;11154;48.558;9.234;2023-02-18T03:19:29;98331.88;;;12.60;95.80
21980;BME280;11154;48.558;9.234;2023-02-18T03:21:37;98328.78;;;12.47;94.21
21980;BME280;11154;48.558;9.234;2023-02-18T03:23:45;98327.63;;;12.50;95.77
21980;BME280;11154;48.558;9.234;2023-02-18T03:25:49;98336.25;;;12.44;95.16
21980;BME280;11154;48.558;9.234;2023-02-18T03:27:53;98334.81;;;12.49;95.43
21980;BME280;11154;48.558;9.234;2023-02-18T03:29:59;98336.47;;;12.50;95.43
21980;BME280;11154;48.558;9.234;2023-02-18T03:32:05;98336.19;;;12.36;93.70
21980;BME280;11154;48.558;9.234;2023-02-18T03:34:10;98337.09;;;12.44;95.87
21980;BME280;11154;48.558;9.234;2023-02-18T03:36:13;98340.91;;;12.42;95.77
21980;BME280;11154;48.558;9.234;2023-02-18T03:38:19;98336.56;;;12.41;94.42
21980;BME280;11154;48.558;9.234;2023-02-18T03:40:24;98340.50;;;12.37;93.33
21980;BME280;11154;48.558;9.234;2023-02-18T03:42:26;98325.13;;;12.48;95.67
21980;BME280;11154;48.558;9.234;2023-02-18T03:44:29;98324.94;;;12.50;94.92
21980;BME280;11154;48.558;9.234;2023-02-18T03:46:32;98320.69;;;12.57;95.15
21980;BME280;11154;48.558;9.234;2023-02-18T03:48:34;98321.16;;;12.35;93.29
21980;BME280;11154;48.558;9.234;2023-02-18T03:50:36;98313.47;;;12.49;94.95
21980;BME280;11154;48.558;9.234;2023-02-18T03:52:37;98313.66;;;12.56;95.37
21980;BME280;11154;48.558;9.234;2023-02-18T03:54:40;98302.69;;;12.59;95.34
21980;BME280;11154;48.558;9.234;2023-02-18T03:56:42;98302.47;;;12.52;95.80
21980;BME280;11154;48.558;9.234;2023-02-18T03:58:44;98300.13;;;12.49;95.80
21980;BME280;11154;48.558;9.234;2023-02-18T04:00:46;98302.94;;;12.48;95.64
21980;BME280;11154;48.558;9.234;2023-02-18T04:02:47;98348.63;;;13.05;93.64
21980;BME280;11154;48.558;9.234;2023-02-18T04:04:49;98341.44;;;13.31;90.93
21980;BME280;11154;48.558;9.234;2023-02-18T04:06:51;98352.06;;;13.48;89.60
21980;BME280;11154;48.558;9.234;2023-02-18T04:08:52;98351.59;;;13.61;87.95
21980;BME280;11154;48.558;9.234;2023-02-18T04:10:55;98357.69;;;13.70;86.99
21980;BME280;11154;48.558;9.234;2023-02-18T04:12:57;98355.38;;;13.75;86.27
21980;BME280;11154;48.558;9.234;2023-02-18T04:14:59;98358.38;;;13.80;85.94
21980;BME280;11154;48.558;9.234;2023-02-18T04:17:00;98359.75;;;13.84;85.10
21980;BME280;11154;48.558;9.234;2023-02-18T04:19:02;98356.09;;;13.85;84.85
21980;BME280;11154;48.558;9.234;2023-02-18T04:21:04;98363.94;;;13.87;84.72
21980;BME280;11154;48.558;9.234;2023-02-18T04:23:06;98355.56;;;13.90;84.32
21980;BME280;11154;48.558;9.234;2023-02-18T04:25:07;98361.44;;;13.93;84.20
21980;BME280;11154;48.558;9.234;2023-02-18T04:27:10;98363.47;;;13.91;83.95
21980;BME280;11154;48.558;9.234;2023-02-18T04:29:12;98360.78;;;13.91;83.84
21980;BME280;11154;48.558;9.234;2023-02-18T04:31:14;98353.75;;;13.90;83.79
21980;BME280;11154;48.558;9.234;2023-02-18T04:33:15;98356.44;;;13.90;83.91
21980;BME280;11154;48.558;9.234;2023-02-18T04:35:17;98353.59;;;13.92;83.50
21980;BME280;11154;48.558;9.234;2023-02-18T04:37:19;98357.09;;;13.92;83.45
21980;BME280;11154;48.558;9.234;2023-02-18T04:39:20;98344.75;;;13.91;83.46
21980;BME280;11154;48.558;9.234;2023-02-18T04:41:22;98349.59;;;13.88;83.51
21980;BME280;11154;48.558;9.234;2023-02-18T04:43:25;98352.09;;;13.89;83.27
21980;BME280;11154;48.558;9.234;2023-02-18T04:45:27;98350.75;;;13.85;83.35
21980;BME280;11154;48.558;9.234;2023-02-18T04:47:29;98354.94;;;13.88;83.42
21980;BME280;11154;48.558;9.234;2023-02-18T04:49:31;98359.41;;;13.87;83.12
21980;BME280;11154;48.558;9.234;2023-02-18T04:51:32;98359.25;;;13.89;83.03
21980;BME280;11154;48.558;9.234;2023-02-18T04:53:34;98351.41;;;13.87;83.25
21980;BME280;11154;48.558;9.234;2023-02-18T04:55:36;98348.91;;;13.86;83.14
21980;BME280;11154;48.558;9.234;2023-02-18T04:57:37;98352.38;;;13.86;83.27
21980;BME280;11154;48.558;9.234;2023-02-18T04:59:41;98352.38;;;13.86;83.35
21980;BME280;11154;48.558;9.234;2023-02-18T05:01:43;98348.22;;;13.84;83.49
21980;BME280;11154;48.558;9.234;2023-02-18T05:03:45;98348.22;;;13.84;83.50
21980;BME280;11154;48.558;9.234;2023-02-18T05:05:46;98351.22;;;13.81;83.55
21980;BME280;11154;48.558;9.234;2023-02-18T05:07:48;98345.88;;;13.81;83.54
21980;BME280;11154;48.558;9.234;2023-02-18T05:09:50;98352.38;;;13.78;83.42
21980;BME280;11154;48.558;9.234;2023-02-18T05:11:51;98346.00;;;13.79;83.54
21980;BME280;11154;48.558;9.234;2023-02-18T05:13:53;98354.72;;;13.81;83.43
21980;BME280;11154;48.558;9.234;2023-02-18T05:15:56;98357.38;;;13.81;83.30
21980;BME280;11154;48.558;9.234;2023-02-18T05:17:57;98350.38;;;13.80;83.22
21980;BME280;11154;48.558;9.234;2023-02-18T05:20:00;98356.69;;;13.79;83.26
21980;BME280;11154;48.558;9.234;2023-02-18T05:22:01;98354.03;;;13.79;83.23
21980;BME280;11154;48.558;9.234;2023-02-18T05:24:04;98344.19;;;13.80;83.16
21980;BME280;11154;48.558;9.234;2023-02-18T05:26:05;98340.84;;;13.78;83.15
21980;BME280;11154;48.558;9.234;2023-02-18T05:28:07;98343.00;;;13.74;82.36
21980;BME280;11154;48.558;9.234;2023-02-18T05:30:09;98338.97;;;13.70;82.48
21980;BME280;11154;48.558;9.234;2023-02-18T05:32:12;98353.50;;;13.68;82.90
21980;BME280;11154;48.558;9.234;2023-02-18T05:34:14;98343.97;;;13.66;82.71
21980;BME280;11154;48.558;9.234;2023-02-18T05:36:15;98351.81;;;13.67;82.73
21980;BME280;11154;48.558;9.234;2023-02-18T05:38:17;98349.31;;;13.66;82.57
21980;BME280;11154;48.558;9.234;2023-02-18T05:40:19;98342.13;;;13.66;82.62
21980;BME280;11154;48.558;9.234;2023-02-18T05:42:20;98341.97;;;13.68;82.78
21980;BME280;11154;48.558;9.234;2023-02-18T05:44:22;98346.66;;;13.73;84.63
21980;BME280;11154;48.558;9.234;2023-02-18T05:46:29;98339.50;;;13.74;83.93
21980;BME280;11154;48.558;9.234;2023-02-18T05:48:32;98339.66;;;13.72;82.56
21980;BME280;11154;48.558;9.234;2023-02-18T05:50:34;98348.69;;;13.71;82.76
21980;BME280;11154;48.558;9.234;2023-02-18T05:52:35;98345.00;;;13.72;82.32
21980;BME280;11154;48.558;9.234;2023-02-18T05:54:38;98350.34;;;13.72;82.36
21980;BME280;11154;48.558;9.234;2023-02-18T05:56:39;98360.19;;;13.72;82.46
21980;BME280;11154;48.558;9.234;2023-02-18T05:58:41;98359.38;;;13.71;82.09
21980;BME280;11154;48.558;9.234;2023-02-18T06:00:43;98353.03;;;13.72;82.45
21980;BME280;11154;48.558;9.234;2023-02-18T06:02:44;98340.31;;;13.74;82.12
21980;BME280;11154;48.558;9.234;2023-02-18T06:04:47;98338.50;;;13.75;82.45
21980;BME280;11154;48.558;9.234;2023-02-18T06:06:49;98346.34;;;13.76;82.34
21980;BME280;11154;48.558;9.234;2023-02-18T06:08:51;98346.19;;;13.78;82.47
21980;BME280;11154;48.558;9.234;2023-02-18T06:10:52;98348.69;;;13.79;81.93
21980;BME280;11154;48.558;9.234;2023-02-18T06:12:54;98347.50;;;13.74;80.82
21980;BME280;11154;48.558;9.234;2023-02-18T06:14:55;98348.69;;;13.79;82.01
21980;BME280;11154;48.558;9.234;2023-02-18T06:16:57;98340.00;;;13.77;82.00
21980;BME280;11154;48.558;9.234;2023-02-18T06:18:59;98341.81;;;13.77;81.65
21980;BME280;11154;48.558;9.234;2023-02-18T06:21:02;98341.81;;;13.77;81.67
21980;BME280;11154;48.558;9.234;2023-02-18T06:23:04;98336.47;;;13.77;81.30
21980;BME280;11154;48.558;9.234;2023-02-18T06:25:05;98340.00;;;13.77;81.20
21980;BME280;11154;48.558;9.234;2023-02-18T06:27:07;98335.31;;;13.79;81.49
21980;BME280;11154;48.558;9.234;2023-02-18T06:29:09;98331.00;;;13.78;80.83
21980;BME280;11154;48.558;9.234;2023-02-18T06:31:10;98332.66;;;13.79;80.94
21980;BME280;11154;48.558;9.234;2023-02-18T06:33:12;98325.47;;;13.80;80.61
21980;BME280;11154;48.558;9.234;2023-02-18T06:35:14;98330.66;;;13.81;81.17
21980;BME280;11154;48.558;9.234;2023-02-18T06:37:17;98332.34;;;13.82;81.13
21980;BME280;11154;48.558;9.234;2023-02-18T06:39:19;98332.34;;;13.82;81.34
21980;BME280;11154;48.558;9.234;2023-02-18T06:41:20;98335.53;;;13.86;81.20
21980;BME280;11154;48.558;9.234;2023-02-18T06:43:22;98337.19;;;13.87;81.64
21980;BME280;11154;48.558;9.234;2023-02-18T06:45:23;98343.38;;;13.87;81.55
21980;BME280;11154;48.558;9.234;2023-02-18T06:47:25;98338.88;;;13.88;81.76
21980;BME280;11154;48.558;9.234;2023-02-18T06:49:27;98340.41;;;13.90;81.83
21980;BME280;11154;48.558;9.234;2023-02-18T06:51:29;98331.22;;;13.93;81.66
21980;BME280;11154;48.558;9.234;2023-02-18T06:53:32;98336.56;;;13.93;82.34
21980;BME280;11154;48.558;9.234;2023-02-18T06:55:34;98337.91;;;13.97;82.24
21980;BME280;11154;48.558;9.234;2023-02-18T06:57:35;98337.75;;;13.98;82.15
21980;BME280;11154;48.558;9.234;2023-02-18T06:59:37;98338.41;;;14.00;82.19
21980;BME280;11154;48.558;9.234;2023-02-18T07:01:39;98337.41;;;14.01;82.39
21980;BME280;11154;48.558;9.234;2023-02-18T07:03:40;98339.78;;;14.04;82.44
21980;BME280;11154;48.558;9.234;2023-02-18T07:05:42;98341.44;;;14.05;82.46
21980;BME280;11154;48.558;9.234;2023-02-18T07:07:43;98342.09;;;14.07;82.39
21980;BME280;11154;48.558;9.234;2023-02-18T07:09:47;98344.50;;;14.10;82.58
21980;BME280;11154;48.558;9.234;2023-02-18T07:11:48;98344.78;;;14.07;82.47
21980;BME280;11154;48.558;9.234;2023-02-18T07:13:50;98344.78;;;14.07;82.84
21980;BME280;11154;48.558;9.234;2023-02-18T07:15:51;98346.47;;;14.08;82.83
21980;BME280;11154;48.558;9.234;2023-02-18T07:17:54;98344.59;;;14.09;82.92
21980;BME280;11154;48.558;9.234;2023-02-18T07:19:56;98340.97;;;14.10;83.26
21980;BME280;11154;48.558;9.234;2023-02-18T07:21:57;98340.13;;;14.09;83.37
21980;BME280;11154;48.558;9.234;2023-02-18T07:23:59;98344.59;;;14.09;83.85
21980;BME280;11154;48.558;9.234;2023-02-18T07:26:08;98341.13;;;14.08;83.92
21980;BME280;11154;48.558;9.234;2023-02-18T07:28:10;98339.97;;;14.11;84.21
21980;BME280;11154;48.558;9.234;2023-02-18T07:30:12;98338.50;;;14.16;84.01
21980;BME280;11154;48.558;9.234;2023-02-18T07:32:15;98334.47;;;14.20;83.97
21980;BME280;11154;48.558;9.234;2023-02-18T07:34:17;98330.47;;;14.24;83.92
21980;BME280;11154;48.558;9.234;2023-02-18T07:36:19;98329.66;;;14.24;84.13
21980;BME280;11154;48.558;9.234;2023-02-18T07:38:21;98330.16;;;14.27;84.16
21980;BME280;11154;48.558;9.234;2023-02-18T07:40:23;98326.47;;;14.28;84.21
21980;BME280;11154;48.558;9.234;2023-02-18T07:42:26;98317.47;;;14.29;84.11
21980;BME280;11154;48.558;9.234;2023-02-18T07:44:27;98324.13;;;14.33;83.69
21980;BME280;11154;48.558;9.234;2023-02-18T07:46:30;98321.81;;;14.38;83.54
21980;BME280;11154;48.558;9.234;2023-02-18T07:48:31;98328.50;;;14.42;83.52
21980;BME280;11154;48.558;9.234;2023-02-18T07:50:33;98323.81;;;14.44;83.35
21980;BME280;11154;48.558;9.234;2023-02-18T07:52:36;98323.31;;;14.48;83.38
21980;BME280;11154;48.558;9.234;2023-02-18T07:54:38;98310.44;;;14.52;83.27
21980;BME280;11154;48.558;9.234;2023-02-18T07:56:39;98318.16;;;14.55;82.45
21980;BME280;11154;48.558;9.234;2023-02-18T07:58:43;98320.47;;;14.58;82.46
21980;BME280;11154;48.558;9.234;2023-02-18T08:00:46;98313.81;;;14.62;82.26
21980;BME280;11154;48.558;9.234;2023-02-18T08:02:48;98311.78;;;14.64;81.68
21980;BME280;11154;48.558;9.234;2023-02-18T08:04:50;98305.44;;;14.65;81.59
21980;BME280;11154;48.558;9.234;2023-02-18T08:06:52;98303.25;;;14.68;81.63
21980;BME280;11154;48.558;9.234;2023-02-18T08:08:53;98303.25;;;14.68;81.50
21980;BME280;11154;48.558;9.234;2023-02-18T08:10:57;98315.47;;;14.71;81.43
21980;BME280;11154;48.558;9.234;2023-02-18T08:13:01;98310.78;;;14.73;81.05
21980;BME280;11154;48.558;9.234;2023-02-18T08:15:04;98301.59;;;14.75;80.68
21980;BME280;11154;48.558;9.234;2023-02-18T08:17:06;98295.22;;;14.76;80.41
21980;BME280;11154;48.558;9.234;2023-02-18T08:19:07;98296.06;;;14.77;80.45
21980;BME280;11154;48.558;9.234;2023-02-18T08:21:09;98303.75;;;14.80;80.43
21980;BME280;11154;48.558;9.234;2023-02-18T08:23:11;98294.06;;;14.79;80.12
21980;BME280;11154;48.558;9.234;2023-02-18T08:25:13;98297.06;;;14.84;79.77
21980;BME280;11154;48.558;9.234;2023-02-18T08:27:15;98289.03;;;14.84;79.69
21980;BME280;11154;48.558;9.234;2023-02-18T08:29:16;98291.53;;;14.85;79.28
21980;BME280;11154;48.558;9.234;2023-02-18T08:31:22;98296.38;;;14.90;78.86
21980;BME280;11154;48.558;9.234;2023-02-18T08:33:24;98291.88;;;14.90;78.64
21980;BME280;11154;48.558;9.234;2023-02-18T08:35:25;98284.66;;;14.91;78.62
21980;BME280;11154;48.558;9.234;2023-02-18T08:37:27;98290.69;;;14.93;78.85
21980;BME280;11154;48.558;9.234;2023-02-18T08:39:33;98294.03;;;14.95;79.26
21980;BME280;11154;48.558;9.234;2023-02-18T08:41:34;98292.38;;;14.94;78.30
21980;BME280;11154;48.558;9.234;2023-02-18T08:43:36;98298.38;;;14.96;78.61
21980;BME280;11154;48.558;9.234;2023-02-18T08:45:38;98298.19;;;14.97;78.16
21980;BME280;11154;48.558;9.234;2023-02-18T08:47:41;98299.06;;;14.98;78.07
21980;BME280;11154;48.558;9.234;2023-02-18T08:49:43;98302.56;;;14.98;77.82
21980;BME280;11154;48.558;9.234;2023-02-18T08:51:45;98297.88;;;15.00;78.03
21980;BME280;11154;48.558;9.234;2023-02-18T08:53:48;98298.69;;;15.01;77.36
21980;BME280;11154;48.558;9.234;2023-02-18T08:55:49;98303.72;;;15.04;77.50
21980;BME280;11154;48.558;9.234;2023-02-18T08:57:51;98300.38;;;15.02;77.60
21980;BME280;11154;48.558;9.234;2023-02-18T08:59:53;98297.88;;;15.00;77.07
21980;BME280;11154;48.558;9.234;2023-02-18T09:01:55;98299.72;;;15.00;76.72
21980;BME280;11154;48.558;9.234;2023-02-18T09:03:58;98296.03;;;15.01;76.86
21980;BME280;11154;48.558;9.234;2023-02-18T09:06:00;98293.34;;;15.01;77.06
21980;BME280;11154;48.558;9.234;2023-02-18T09:08:01;98300.72;;;14.99;77.12
21980;BME280;11154;48.558;9.234;2023-02-18T09:10:04;98301.56;;;14.99;77.72
21980;BME280;11154;48.558;9.234;2023-02-18T09:12:07;98302.41;;;15.00;78.13
21980;BME280;11154;48.558;9.234;2023-02-18T09:14:09;98299.72;;;15.00;77.70
21980;BME280;11154;48.558;9.234;2023-02-18T09:16:12;98289.00;;;15.00;78.07
21980;BME280;11154;48.558;9.234;2023-02-18T09:18:14;98286.34;;;15.00;77.68
21980;BME280;11154;48.558;9.234;2023-02-18T09:20:18;98286.34;;;15.00;77.67
21980;BME280;11154;48.558;9.234;2023-02-18T09:22:20;98289.16;;;14.98;77.74
21980;BME280;11154;48.558;9.234;2023-02-18T09:24:21;98293.34;;;15.01;78.19
21980;BME280;11154;48.558;9.234;2023-02-18T09:26:24;98286.34;;;15.00;78.32
21980;BME280;11154;48.558;9.234;2023-02-18T09:28:26;98282.63;;;15.01;77.96
21980;BME280;11154;48.558;9.234;2023-02-18T09:30:28;98285.16;;;15.02;77.79
21980;BME280;11154;48.558;9.234;2023-02-18T09:32:29;98287.84;;;15.02;77.64
21980;BME280;11154;48.558;9.234;2023-02-18T09:34:31;98268.72;;;15.05;77.96
21980;BME280;11154;48.558;9.234;2023-02-18T09:36:34;98280.28;;;15.06;78.23
21980;BME280;11154;48.558;9.234;2023-02-18T09:38:35;98271.91;;;15.09;78.14
21980;BME280;11154;48.558;9.234;2023-02-18T09:40:42;98267.34;;;15.17;78.18
21980;BME280;11154;48.558;9.234;2023-02-18T09:42:44;98265.66;;;15.16;77.35
21980;BME280;11154;48.558;9.234;2023-02-18T09:44:48;98260.00;;;15.19;77.82
21980;BME280;11154;48.558;9.234;2023-02-18T09:46:53;98255.16;;;15.22;77.58
21980;BME280;11154;48.558;9.234;2023-02-18T09:48:56;98246.41;;;15.20;77.75
21980;BME280;11154;48.558;9.234;2023-02-18T09:50:59;98244.72;;;15.19;77.60
21980;BME280;11154;48.558;9.234;2023-02-18T09:53:02;98243.91;;;15.19;77.56
21980;BME280;11154;48.558;9.234;2023-02-18T09:55:19;98234.69;;;15.21;77.82
21980;BME280;11154;48.558;9.234;2023-02-18T09:57:24;98238.22;;;15.22;78.10
21980;BME280;11154;48.558;9.234;2023-02-18T09:59:27;98230.03;;;15.23;77.86
21980;BME280;11154;48.558;9.234;2023-02-18T10:01:31;98228.66;;;15.27;77.88
21980;BME280;11154;48.558;9.234;2023-02-18T10:03:34;98226.84;;;15.28;77.99
21980;BME280;11154;48.558;9.234;2023-02-18T10:05:40;98235.53;;;15.30;77.59
21980;BME280;11154;48.558;9.234;2023-02-18T10:07:43;98236.00;;;15.33;77.73
21980;BME280;11154;48.558;9.234;2023-02-18T10:09:49;98238.38;;;15.36;78.35
21980;BME280;11154;48.558;9.234;2023-02-18T10:11:55;98237.34;;;15.37;78.13
21980;BME280;11154;48.558;9.234;2023-02-18T10:13:59;98238.84;;;15.40;78.24
21980;BME280;11154;48.558;9.234;2023-02-18T10:16:02;98237.00;;;15.40;78.25
21980;BME280;11154;48.558;9.234;2023-02-18T10:18:15;98248.56;;;15.41;77.75
21980;BME280;11154;48.558;9.234;2023-02-18T10:20:22;98236.28;;;15.46;78.57
21980;BME280;11154;48.558;9.234;2023-02-18T10:22:25;98237.97;;;15.47;77.01
21980;BME280;11154;48.558;9.234;2023-02-18T10:24:30;98238.66;;;15.49;76.76
21980;BME280;11154;48.558;9.234;2023-02-18T10:26:36;98240.97;;;15.52;75.28
21980;BME280;11154;48.558;9.234;2023-02-18T10:28:38;98237.28;;;15.53;73.66
21980;BME280;11154;48.558;9.234;2023-02-18T10:30:41;98241.63;;;15.54;76.76
21980;BME280;11154;48.558;9.234;2023-02-18T10:32:44;98245.06;;;15.71;77.00
21980;BME280;11154;48.558;9.234;2023-02-18T10:34:48;98231.94;;;15.84;74.93
21980;BME280;11154;48.558;9.234;2023-02-18T10:36:54;98220.78;;;15.64;74.65
21980;BME280;11154;48.558;9.234;2023-02-18T10:39:26;98218.69;;;15.52;74.19
21980;BME280;11154;48.558;9.234;2023-02-18T10:41:38;98212.88;;;15.40;74.76
21980;BME280;11154;48.558;9.234;2023-02-18T10:43:50;98217.56;;;15.38;75.44
21980;BME280;11154;48.558;9.234;2023-02-18T10:45:59;98232.50;;;15.41;76.17
21980;BME280;11154;48.558;9.234;2023-02-18T10:48:13;98235.31;;;15.39;75.00
21980;BME280;11154;48.558;9.234;2023-02-18T10:50:27;98241.16;;;15.43;75.93
21980;BME280;11154;48.558;9.234;2023-02-18T10:52:33;98251.69;;;15.52;74.55
21980;BME280;11154;48.558;9.234;2023-02-18T10:54:52;98252.03;;;15.57;73.45
21980;BME280;11154;48.558;9.234;2023-02-18T10:56:59;98252.66;;;15.59;73.33
21980;BME280;11154;48.558;9.234;2023-02-18T10:59:12;98254.31;;;15.68;73.71